Time;durP1;ratioP1;P1;durP2;ratioP2;P2;SDS_P1;SDS_P2;PMS_P1;PMS_P2;Temp;Humidity;BMP_temperature;BMP_pressure;BME280_temperature;BME280_humidity;BME280_pressure;Samples;Min_cycle;Max_cycle;Signal;HPM_P1;HPM_P2
2023/01/10 00:00:08;;;;;;;15.75;10.13;;;7.90;99.90;;;;;;5060547;28;20199;-84
2023/01/10 00:02:35;;;;;;;15.05;10.73;;;7.90;99.90;;;;;;5052094;28;20308;-84
2023/01/10 00:05:03;;;;;;;13.93;10.23;;;7.90;99.90;;;;;;5056920;28;20231;-84
2023/01/10 00:07:30;;;;;;;12.60;9.90;;;8.00;99.90;;;;;;5045887;28;20235;-84
2023/01/10 00:09:57;;;;;;;18.48;11.32;;;8.10;99.90;;;;;;5060969;28;20211;-83
2023/01/10 00:15:10;;;;;;;16.00;10.18;;;8.00;99.90;;;;;;5060731;28;20203;-82
2023/01/10 00:17:38;;;;;;;16.67;11.50;;;8.10;99.90;;;;;;5048774;28;20223;-82
2023/01/10 00:20:06;;;;;;;17.02;10.48;;;8.10;99.90;;;;;;5054304;28;20201;-81
2023/01/10 00:22:34;;;;;;;15.88;10.63;;;8.00;99.90;;;;;;5049206;28;20224;-81
2023/01/10 00:25:00;;;;;;;13.40;10.40;;;8.20;99.90;;;;;;5061047;28;20211;-81
2023/01/10 00:27:28;;;;;;;18.98;12.27;;;8.00;99.90;;;;;;5059777;28;20200;-83
2023/01/10 00:29:57;;;;;;;24.05;10.70;;;8.10;99.90;;;;;;5060192;28;20211;-81
2023/01/10 00:32:23;;;;;;;18.20;11.18;;;8.10;99.90;;;;;;5053582;28;20204;-82
2023/01/10 00:34:50;;;;;;;17.02;11.65;;;8.00;99.90;;;;;;5057798;28;20208;-81
2023/01/10 00:37:18;;;;;;;16.27;11.73;;;8.20;99.90;;;;;;5053330;28;20208;-81
2023/01/10 00:39:45;;;;;;;19.55;11.95;;;8.10;99.90;;;;;;5061451;28;20204;-84
2023/01/10 00:44:57;;;;;;;17.15;11.60;;;8.10;99.90;;;;;;5063951;28;20208;-83
2023/01/10 00:47:24;;;;;;;16.45;10.38;;;8.00;99.90;;;;;;5074560;28;20510;-82
2023/01/10 00:49:51;;;;;;;17.55;11.30;;;8.10;99.90;;;;;;5065831;28;20226;-82
2023/01/10 00:52:18;;;;;;;17.33;11.25;;;7.80;99.90;;;;;;5058763;28;20203;-84
2023/01/10 00:54:45;;;;;;;16.85;11.30;;;7.70;99.90;;;;;;5067676;28;20294;-82
2023/01/10 00:57:12;;;;;;;14.95;11.23;;;7.80;99.90;;;;;;5055792;28;20211;-83
2023/01/10 00:59:39;;;;;;;14.95;11.45;;;7.80;99.90;;;;;;5058921;28;20215;-82
2023/01/10 01:02:06;;;;;;;19.35;12.13;;;7.70;99.90;;;;;;5055738;28;20256;-83
2023/01/10 01:04:33;;;;;;;15.90;11.25;;;7.60;99.90;;;;;;5059544;28;20459;-82
2023/01/10 01:07:01;;;;;;;16.35;12.35;;;7.80;99.90;;;;;;5046020;28;20236;-81
2023/01/10 01:09:29;;;;;;;14.88;10.80;;;7.90;99.90;;;;;;5061056;28;20258;-83
2023/01/10 01:11:55;;;;;;;20.02;11.80;;;7.80;99.90;;;;;;5048935;28;20246;-82
2023/01/10 01:14:23;;;;;;;16.95;11.30;;;7.70;99.90;;;;;;5075308;28;20217;-82
2023/01/10 01:16:51;;;;;;;14.15;11.60;;;7.80;99.90;;;;;;5053975;28;20666;-82
2023/01/10 01:19:18;;;;;;;17.85;12.43;;;7.80;99.90;;;;;;5052853;28;20238;-84
2023/01/10 01:21:44;;;;;;;17.10;12.40;;;7.70;99.90;;;;;;5059640;28;20384;-83
2023/01/10 01:24:11;;;;;;;16.58;12.40;;;7.70;99.90;;;;;;5062604;28;20207;-83
2023/01/10 01:26:38;;;;;;;17.58;12.20;;;7.80;99.90;;;;;;5060898;28;20203;-84
2023/01/10 01:29:05;;;;;;;16.73;11.90;;;7.70;99.90;;;;;;5054425;28;20212;-82
2023/01/10 01:31:32;;;;;;;19.92;12.50;;;7.40;99.90;;;;;;5058384;28;20204;-82
2023/01/10 01:33:59;;;;;;;18.48;12.93;;;7.40;99.90;;;;;;5050246;28;20210;-82
2023/01/10 01:36:26;;;;;;;18.58;12.25;;;7.50;99.90;;;;;;5044251;28;20207;-83
2023/01/10 01:38:53;;;;;;;16.40;11.70;;;7.60;99.90;;;;;;5050253;28;20230;-82
2023/01/10 01:44:18;;;;;;;17.83;12.23;;;7.30;99.90;;;;;;5054426;28;20387;-83
2023/01/10 01:46:56;;;;;;;20.10;13.60;;;7.40;99.90;;;;;;5058792;28;20546;-85
2023/01/10 01:49:23;;;;;;;17.80;12.63;;;7.40;99.90;;;;;;5055821;28;20219;-86
2023/01/10 01:51:58;;;;;;;20.75;14.05;;;7.30;99.90;;;;;;5050408;28;20204;-84
2023/01/10 01:54:28;;;;;;;19.10;10.57;;;7.30;99.90;;;;;;5040114;28;20234;-85
2023/01/10 01:57:05;;;;;;;14.93;12.05;;;7.10;99.90;;;;;;5060012;28;20270;-83
2023/01/10 01:59:37;;;;;;;22.10;12.38;;;7.00;99.90;;;;;;5053428;28;20515;-84
2023/01/10 02:02:34;;;;;;;21.75;12.60;;;6.90;99.90;;;;;;5053817;28;20249;-84
2023/01/10 02:05:09;;;;;;;18.90;13.57;;;7.00;99.90;;;;;;5045099;28;20207;-83
2023/01/10 02:07:40;;;;;;;19.27;11.48;;;7.00;99.90;;;;;;5059241;28;20211;-84
2023/01/10 02:10:30;;;;;;;16.30;12.07;;;6.90;99.90;;;;;;5049209;28;20287;-84
2023/01/10 02:13:02;;;;;;;17.05;11.68;;;6.70;99.90;;;;;;5046641;28;20619;-84
2023/01/10 02:15:30;;;;;;;20.48;12.15;;;6.60;99.90;;;;;;5054669;28;20216;-83
2023/01/10 02:17:57;;;;;;;19.33;12.70;;;6.60;99.90;;;;;;5049677;28;20231;-84
2023/01/10 02:20:27;;;;;;;18.45;12.18;;;6.60;99.90;;;;;;5053070;28;20207;-83
2023/01/10 02:23:35;;;;;;;20.40;12.93;;;6.40;99.90;;;;;;5052077;28;20388;-83
2023/01/10 02:26:40;;;;;;;17.67;13.02;;;6.50;99.90;;;;;;5045616;28;20234;-83
2023/01/10 02:29:29;;;;;;;18.10;12.18;;;6.40;99.90;;;;;;5051515;28;20825;-81
2023/01/10 02:32:11;;;;;;;18.52;13.52;;;6.30;99.90;;;;;;5050540;28;20207;-81
2023/01/10 02:35:04;;;;;;;15.02;11.90;;;6.20;99.90;;;;;;5058016;28;20203;-80
2023/01/10 02:37:59;;;;;;;20.70;15.25;;;6.00;99.90;;;;;;5056627;28;20204;-82
2023/01/10 02:41:09;;;;;;;21.48;13.75;;;6.10;99.90;;;;;;5058749;28;20210;-82
2023/01/10 02:43:46;;;;;;;16.77;12.90;;;6.20;99.90;;;;;;5046241;28;20223;-85
2023/01/10 02:46:23;;;;;;;19.27;13.43;;;6.10;99.90;;;;;;5053251;28;20203;-84
2023/01/10 02:48:51;;;;;;;18.33;12.45;;;6.20;99.90;;;;;;5050246;28;20286;-85
2023/01/10 02:51:22;;;;;;;19.13;14.43;;;6.10;99.90;;;;;;5057005;28;20213;-83
2023/01/10 02:54:07;;;;;;;22.30;13.38;;;6.00;99.90;;;;;;5046809;28;20212;-85
2023/01/10 02:57:01;;;;;;;21.23;13.18;;;6.10;99.90;;;;;;5056541;28;20196;-84
2023/01/10 02:59:50;;;;;;;21.63;14.25;;;6.10;99.90;;;;;;5046669;28;20580;-87
2023/01/10 03:02:21;;;;;;;20.20;13.82;;;6.10;99.90;;;;;;5050941;28;20209;-84
2023/01/10 03:05:25;;;;;;;14.75;11.52;;;6.10;99.90;;;;;;5051358;28;20440;-84
2023/01/10 03:08:46;;;;;;;16.75;11.27;;;6.20;99.90;;;;;;5047802;28;20514;-85
2023/01/10 03:11:13;;;;;;;13.77;11.15;;;6.20;99.90;;;;;;5053969;28;20199;-83
2023/01/10 03:13:39;;;;;;;16.58;11.00;;;6.30;99.90;;;;;;5055131;28;20614;-83
2023/01/10 03:16:11;;;;;;;13.50;9.50;;;6.30;99.90;;;;;;5061277;28;20435;-81
2023/01/10 03:18:47;;;;;;;14.05;9.25;;;6.30;99.90;;;;;;5047570;28;20290;-81
2023/01/10 03:21:18;;;;;;;15.23;8.57;;;6.30;99.90;;;;;;5062644;28;20207;-80
2023/01/10 03:23:47;;;;;;;13.32;8.57;;;6.30;99.90;;;;;;5057965;28;20211;-81
2023/01/10 03:26:16;;;;;;;10.27;7.78;;;6.50;99.90;;;;;;5068089;28;20199;-84
2023/01/10 03:28:51;;;;;;;10.00;7.45;;;6.50;99.90;;;;;;5058805;28;20216;-80
2023/01/10 03:31:24;;;;;;;9.77;7.03;;;6.50;99.90;;;;;;5048211;28;20536;-81
2023/01/10 03:33:51;;;;;;;9.98;6.22;;;6.40;99.90;;;;;;5042016;28;20267;-85
2023/01/10 03:36:49;;;;;;;7.50;6.25;;;6.40;99.90;;;;;;5059648;28;20207;-82
2023/01/10 03:39:25;;;;;;;7.90;6.13;;;6.30;99.90;;;;;;5046047;28;20396;-80
2023/01/10 03:42:06;;;;;;;17.10;6.80;;;6.30;99.90;;;;;;5050164;28;20206;-83
2023/01/10 03:44:45;;;;;;;9.63;6.82;;;6.20;99.90;;;;;;5057173;28;20495;-83
2023/01/10 03:47:21;;;;;;;8.30;5.07;;;6.30;99.90;;;;;;5051578;28;20204;-86
2023/01/10 03:49:55;;;;;;;10.18;6.47;;;6.30;99.90;;;;;;5051428;28;20219;-84
2023/01/10 03:52:23;;;;;;;9.52;6.85;;;6.30;99.90;;;;;;5061895;28;20213;-84
2023/01/10 03:54:52;;;;;;;9.50;6.40;;;6.30;99.90;;;;;;5059368;28;20213;-88
2023/01/10 03:57:23;;;;;;;7.05;5.30;;;6.30;99.90;;;;;;5048802;28;20706;-83
2023/01/10 03:59:54;;;;;;;6.43;4.63;;;6.40;99.90;;;;;;5051562;28;20234;-84
2023/01/10 04:02:21;;;;;;;5.57;4.75;;;6.20;99.90;;;;;;5070001;28;20334;-83
2023/01/10 04:04:48;;;;;;;9.30;5.82;;;6.20;99.90;;;;;;5058679;28;20638;-84
2023/01/10 04:07:14;;;;;;;8.75;4.80;;;6.20;99.90;;;;;;5053221;28;20558;-80
2023/01/10 04:09:41;;;;;;;11.18;5.57;;;6.20;99.90;;;;;;5072318;28;20277;-82
2023/01/10 04:12:08;;;;;;;9.75;5.50;;;6.10;99.90;;;;;;5053984;28;20653;-82
2023/01/10 04:14:35;;;;;;;8.18;5.82;;;6.10;99.90;;;;;;5053782;28;20203;-83
2023/01/10 04:17:02;;;;;;;7.10;4.80;;;6.10;99.90;;;;;;5056446;28;20204;-82
2023/01/10 04:19:29;;;;;;;10.27;5.30;;;6.10;99.90;;;;;;5051496;28;20232;-82
2023/01/10 04:21:56;;;;;;;7.53;5.50;;;6.10;99.90;;;;;;5053133;28;20370;-83
2023/01/10 04:24:23;;;;;;;8.10;5.72;;;6.10;99.90;;;;;;5048944;28;20207;-82
2023/01/10 04:26:50;;;;;;;7.93;5.75;;;6.20;99.90;;;;;;5047617;28;20241;-82
2023/01/10 04:29:17;;;;;;;6.07;5.05;;;6.00;99.90;;;;;;5041650;28;20212;-81
2023/01/10 04:31:44;;;;;;;9.35;5.50;;;6.20;99.90;;;;;;5075757;28;20503;-80
2023/01/10 04:34:11;;;;;;;13.07;6.68;;;6.20;99.90;;;;;;5048478;28;20740;-85
2023/01/10 04:36:38;;;;;;;12.32;5.43;;;6.00;99.90;;;;;;5060471;28;20215;-82
2023/01/10 04:39:05;;;;;;;10.15;6.07;;;6.20;99.90;;;;;;5051755;28;20393;-80
2023/01/10 04:41:32;;;;;;;8.05;5.07;;;6.10;99.90;;;;;;5059499;28;20192;-81
2023/01/10 04:44:00;;;;;;;8.65;5.55;;;6.30;99.90;;;;;;5051391;28;20257;-81
2023/01/10 04:46:26;;;;;;;8.00;6.00;;;6.20;99.90;;;;;;5051851;28;20247;-83
2023/01/10 04:48:54;;;;;;;9.65;6.43;;;6.30;99.90;;;;;;5066384;28;20196;-82
2023/01/10 04:51:21;;;;;;;10.20;7.28;;;6.30;99.90;;;;;;5057681;28;20207;-84
2023/01/10 04:53:48;;;;;;;10.52;6.80;;;6.20;99.90;;;;;;5041425;28;20409;-82
2023/01/10 04:56:17;;;;;;;6.47;5.75;;;6.20;99.90;;;;;;5054008;28;20278;-81
2023/01/10 04:58:45;;;;;;;11.70;6.95;;;6.30;99.90;;;;;;5061502;28;20227;-81
2023/01/10 05:01:15;;;;;;;6.38;5.18;;;6.30;99.90;;;;;;5061722;28;20198;-80
2023/01/10 05:03:42;;;;;;;7.55;4.95;;;6.50;99.90;;;;;;5056889;28;20245;-81
2023/01/10 05:06:09;;;;;;;11.60;5.05;;;6.50;99.90;;;;;;5058709;28;20207;-81
2023/01/10 05:08:36;;;;;;;8.90;6.00;;;6.50;99.90;;;;;;5054397;28;20261;-83
2023/01/10 05:11:03;;;;;;;6.32;5.20;;;6.40;99.90;;;;;;5062718;28;20310;-85
2023/01/10 05:13:31;;;;;;;8.38;7.32;;;6.40;99.90;;;;;;5056375;28;20246;-84
2023/01/10 05:15:59;;;;;;;8.38;5.45;;;6.40;99.90;;;;;;5075612;28;20283;-83
2023/01/10 05:18:28;;;;;;;5.55;4.90;;;6.40;99.90;;;;;;5068448;28;20195;-80
2023/01/10 05:21:04;;;;;;;6.63;5.50;;;6.30;99.90;;;;;;5045259;28;20497;-81
2023/01/10 05:23:31;;;;;;;10.48;6.10;;;6.20;99.90;;;;;;5054216;28;20203;-81
2023/01/10 05:26:09;;;;;;;9.93;5.30;;;6.20;99.90;;;;;;5057147;28;20573;-81
2023/01/10 05:28:37;;;;;;;8.07;5.70;;;6.30;99.90;;;;;;5077062;28;20211;-81
2023/01/10 05:31:05;;;;;;;7.63;5.63;;;6.30;99.90;;;;;;5061435;28;20245;-81
2023/01/10 05:33:33;;;;;;;9.40;5.80;;;6.30;99.90;;;;;;5058450;28;20233;-80
2023/01/10 05:36:02;;;;;;;12.00;7.68;;;6.20;99.90;;;;;;5056147;28;20235;-82
2023/01/10 05:38:29;;;;;;;6.80;4.75;;;6.20;99.90;;;;;;5055052;28;20235;-82
2023/01/10 05:40:59;;;;;;;12.07;6.43;;;6.30;99.90;;;;;;5081870;28;20521;-82
2023/01/10 05:43:27;;;;;;;8.93;6.35;;;6.20;99.90;;;;;;5066422;28;20203;-79
2023/01/10 05:46:01;;;;;;;9.05;5.90;;;6.20;99.90;;;;;;5052051;28;20195;-80
2023/01/10 05:48:57;;;;;;;7.40;5.40;;;6.20;99.90;;;;;;5066839;28;20230;-84
2023/01/10 05:51:25;;;;;;;11.73;8.82;;;6.20;99.90;;;;;;5058534;28;20199;-81
2023/01/10 05:53:52;;;;;;;8.63;6.65;;;6.20;99.90;;;;;;5065344;28;20226;-83
2023/01/10 05:56:18;;;;;;;9.07;5.65;;;6.20;99.90;;;;;;5056770;28;20200;-80
2023/01/10 05:58:46;;;;;;;7.97;6.07;;;6.30;99.90;;;;;;5061579;28;20223;-80
2023/01/10 06:01:19;;;;;;;7.22;5.40;;;6.10;99.90;;;;;;5059669;28;20268;-80
2023/01/10 06:03:47;;;;;;;7.35;4.88;;;6.10;99.90;;;;;;5057881;28;20287;-81
2023/01/10 06:06:14;;;;;;;7.00;5.35;;;6.10;99.90;;;;;;5055779;28;20261;-81
2023/01/10 06:08:41;;;;;;;8.90;5.82;;;6.20;99.90;;;;;;5059110;28;20235;-81
2023/01/10 06:11:07;;;;;;;7.50;5.07;;;6.10;99.90;;;;;;5059255;28;20207;-80
2023/01/10 06:13:34;;;;;;;8.32;5.50;;;6.00;99.90;;;;;;5058472;28;20443;-82
2023/01/10 06:16:02;;;;;;;8.50;6.20;;;6.00;99.90;;;;;;5058512;28;20207;-81
2023/01/10 06:18:29;;;;;;;8.10;5.32;;;5.90;99.90;;;;;;5073658;28;20229;-83
2023/01/10 06:20:56;;;;;;;9.20;6.28;;;6.00;99.90;;;;;;5047683;28;20483;-84
2023/01/10 06:23:23;;;;;;;10.82;6.00;;;6.00;99.90;;;;;;5060634;28;20219;-83
2023/01/10 06:25:50;;;;;;;8.45;6.97;;;5.90;99.90;;;;;;5079024;28;20487;-82
2023/01/10 06:28:17;;;;;;;10.45;7.68;;;5.90;99.90;;;;;;5080242;28;20207;-85
2023/01/10 06:30:44;;;;;;;9.40;5.57;;;6.00;99.90;;;;;;5063205;28;20254;-82
2023/01/10 06:33:11;;;;;;;9.48;5.70;;;6.00;99.90;;;;;;5060819;28;20203;-81
2023/01/10 06:35:38;;;;;;;9.00;6.78;;;6.10;99.90;;;;;;5057248;28;20215;-83
2023/01/10 06:38:05;;;;;;;10.50;6.18;;;6.10;99.90;;;;;;5048364;28;20412;-81
2023/01/10 06:40:32;;;;;;;11.65;7.07;;;6.00;99.90;;;;;;5056685;28;20245;-82
2023/01/10 06:42:59;;;;;;;11.95;6.93;;;5.90;99.90;;;;;;5056941;28;20203;-82
2023/01/10 06:45:26;;;;;;;8.65;5.93;;;5.90;99.90;;;;;;5060704;28;20230;-83
2023/01/10 06:47:53;;;;;;;8.68;6.25;;;6.00;99.90;;;;;;5061600;28;20269;-82
2023/01/10 06:50:21;;;;;;;8.52;6.25;;;5.90;99.90;;;;;;5050935;28;20227;-84
2023/01/10 06:52:57;;;;;;;6.13;5.35;;;5.90;99.90;;;;;;5056176;28;20279;-83
2023/01/10 06:55:25;;;;;;;10.00;6.47;;;6.00;99.90;;;;;;5056153;28;20219;-83
2023/01/10 06:58:00;;;;;;;7.50;6.03;;;6.00;99.90;;;;;;5058538;28;20211;-85
2023/01/10 07:00:28;;;;;;;8.82;5.82;;;6.00;99.90;;;;;;5060524;28;20224;-88
2023/01/10 07:03:00;;;;;;;8.00;6.70;;;6.00;99.90;;;;;;5056699;28;20257;-83
2023/01/10 07:05:28;;;;;;;11.73;5.35;;;6.00;99.90;;;;;;5059233;28;20554;-85
2023/01/10 07:07:57;;;;;;;5.70;4.55;;;6.10;99.90;;;;;;5049293;28;20208;-82
2023/01/10 07:10:24;;;;;;;7.55;5.68;;;6.00;99.90;;;;;;5056730;28;20218;-84
2023/01/10 07:12:54;;;;;;;7.85;5.75;;;6.00;99.90;;;;;;5050277;28;20484;-83
2023/01/10 07:15:21;;;;;;;9.52;6.85;;;6.10;99.90;;;;;;5042643;28;20208;-83
2023/01/10 07:17:49;;;;;;;8.93;7.60;;;6.00;99.90;;;;;;5048691;28;20215;-83
2023/01/10 07:20:17;;;;;;;11.57;6.60;;;6.00;99.90;;;;;;5042764;28;20228;-83
2023/01/10 07:22:51;;;;;;;10.20;7.38;;;6.10;99.90;;;;;;5062753;28;20265;-83
2023/01/10 07:25:18;;;;;;;7.80;6.85;;;6.10;99.90;;;;;;5079848;28;20694;-83
2023/01/10 07:27:45;;;;;;;11.43;8.65;;;6.00;99.90;;;;;;5062894;28;20218;-82
2023/01/10 07:30:13;;;;;;;9.30;7.40;;;6.00;99.90;;;;;;5068549;28;20270;-81
2023/01/10 07:32:40;;;;;;;10.23;8.30;;;6.10;99.90;;;;;;5057067;28;20214;-84
2023/01/10 07:35:07;;;;;;;11.60;9.65;;;6.20;99.90;;;;;;5057249;28;20215;-83
2023/01/10 07:37:35;;;;;;;14.63;10.07;;;6.10;99.90;;;;;;5078457;28;20219;-83
2023/01/10 07:40:02;;;;;;;10.55;7.78;;;6.20;99.90;;;;;;5058454;28;20295;-84
2023/01/10 07:42:29;;;;;;;15.10;8.60;;;6.20;99.90;;;;;;5076176;28;20508;-85
2023/01/10 07:44:55;;;;;;;10.55;6.85;;;6.20;99.90;;;;;;5049789;28;20275;-85
2023/01/10 07:47:23;;;;;;;9.32;7.38;;;6.30;99.90;;;;;;5050853;28;20248;-84
2023/01/10 07:49:50;;;;;;;6.78;5.30;;;6.30;99.90;;;;;;5055566;28;20207;-83
2023/01/10 07:52:17;;;;;;;7.75;5.80;;;6.40;99.90;;;;;;5060485;28;20200;-83
2023/01/10 07:54:45;;;;;;;11.30;5.97;;;6.30;99.90;;;;;;5072252;28;20250;-81
2023/01/10 07:57:11;;;;;;;11.45;6.35;;;6.40;99.90;;;;;;5048887;28;20210;-83
2023/01/10 07:59:38;;;;;;;9.73;6.05;;;6.40;99.90;;;;;;5058979;28;20455;-88
2023/01/10 08:02:05;;;;;;;8.15;6.05;;;6.40;99.90;;;;;;5048144;28;20208;-84
2023/01/10 08:04:32;;;;;;;10.02;7.55;;;6.40;99.90;;;;;;5045478;28;20208;-85
2023/01/10 08:06:59;;;;;;;7.15;6.35;;;6.30;99.90;;;;;;5054783;28;20511;-85
2023/01/10 08:09:26;;;;;;;6.80;6.10;;;6.40;99.90;;;;;;5056477;28;20195;-83
2023/01/10 08:11:53;;;;;;;7.00;5.28;;;6.40;99.90;;;;;;5053211;28;20218;-85
2023/01/10 08:14:20;;;;;;;10.20;5.60;;;6.40;99.90;;;;;;5061155;28;20202;-82
2023/01/10 08:16:47;;;;;;;5.68;4.60;;;6.40;99.90;;;;;;5048933;28;20262;-84
2023/01/10 08:19:15;;;;;;;8.23;5.70;;;6.40;99.90;;;;;;5057764;28;20192;-83
2023/01/10 08:21:43;;;;;;;6.00;4.55;;;6.40;99.90;;;;;;5054620;28;20697;-85
2023/01/10 08:24:10;;;;;;;5.65;4.30;;;6.40;99.90;;;;;;5050915;28;20422;-86
2023/01/10 08:26:37;;;;;;;8.30;5.65;;;6.40;99.90;;;;;;5049630;28;20546;-81
2023/01/10 08:29:04;;;;;;;9.02;5.72;;;6.50;99.90;;;;;;5077198;28;20200;-83
2023/01/10 08:31:31;;;;;;;9.27;4.70;;;6.50;99.90;;;;;;5055627;28;20225;-87
2023/01/10 08:33:58;;;;;;;6.20;4.70;;;6.40;99.90;;;;;;5056223;28;20212;-85
2023/01/10 08:36:25;;;;;;;10.57;5.10;;;6.50;99.90;;;;;;5053270;28;20199;-82
2023/01/10 08:38:54;;;;;;;6.97;4.97;;;6.30;99.90;;;;;;5048354;28;20227;-82
2023/01/10 08:41:21;;;;;;;8.70;6.07;;;6.50;99.90;;;;;;5052577;28;20231;-80
2023/01/10 08:43:49;;;;;;;9.38;4.20;;;6.50;99.90;;;;;;5058004;28;20206;-83
2023/01/10 08:46:18;;;;;;;6.32;4.70;;;6.70;99.90;;;;;;5053941;28;20195;-81
2023/01/10 08:48:49;;;;;;;9.23;5.07;;;6.60;99.90;;;;;;5060697;28;20553;-82
2023/01/10 08:51:16;;;;;;;6.22;4.25;;;6.70;99.90;;;;;;5062432;28;20208;-85
2023/01/10 08:53:43;;;;;;;8.48;4.90;;;6.80;99.90;;;;;;5062300;28;20214;-84
2023/01/10 08:56:10;;;;;;;5.35;4.68;;;6.70;99.90;;;;;;5052565;28;20200;-81
2023/01/10 08:58:37;;;;;;;9.63;6.60;;;6.90;99.90;;;;;;5049282;28;20252;-82
2023/01/10 09:01:06;;;;;;;7.15;5.93;;;6.90;99.90;;;;;;5046496;28;20231;-82
2023/01/10 09:03:34;;;;;;;8.45;5.13;;;6.90;99.90;;;;;;5055282;28;20486;-83
2023/01/10 09:06:01;;;;;;;6.03;4.45;;;7.00;99.90;;;;;;5053696;28;20230;-81
2023/01/10 09:08:28;;;;;;;5.97;4.55;;;7.00;99.90;;;;;;5047150;28;20215;-82
2023/01/10 09:10:59;;;;;;;8.60;7.75;;;7.00;99.90;;;;;;5054258;28;20195;-84
2023/01/10 09:13:27;;;;;;;6.85;5.35;;;7.10;99.90;;;;;;5057703;28;20456;-80
2023/01/10 09:15:55;;;;;;;4.78;3.85;;;7.10;99.90;;;;;;5051564;28;20207;-83
2023/01/10 09:18:23;;;;;;;7.43;3.35;;;7.20;99.90;;;;;;5058835;28;20199;-84
2023/01/10 09:20:51;;;;;;;5.93;4.35;;;7.10;99.90;;;;;;5046867;28;20305;-81
2023/01/10 09:23:21;;;;;;;8.10;4.68;;;7.10;99.90;;;;;;5048736;28;20215;-81
2023/01/10 09:25:51;;;;;;;5.97;4.95;;;7.10;99.90;;;;;;5065026;28;20207;-82
2023/01/10 09:28:20;;;;;;;7.07;5.10;;;7.20;99.90;;;;;;5055536;28;20200;-84
2023/01/10 09:30:47;;;;;;;5.57;3.80;;;7.10;99.90;;;;;;5045973;28;20208;-82
2023/01/10 09:33:14;;;;;;;10.52;4.28;;;7.10;99.90;;;;;;5058156;28;20201;-81
2023/01/10 09:35:42;;;;;;;4.72;3.90;;;7.10;99.90;;;;;;5056922;28;20568;-83
2023/01/10 09:38:13;;;;;;;4.40;4.00;;;7.10;99.90;;;;;;5060454;28;20239;-83
2023/01/10 09:40:58;;;;;;;4.90;3.65;;;7.20;99.90;;;;;;5055183;28;20262;-82
2023/01/10 09:43:50;;;;;;;6.55;4.15;;;7.20;99.90;;;;;;5063157;28;20192;-82
2023/01/10 09:46:35;;;;;;;7.97;4.78;;;7.30;99.90;;;;;;5042859;28;20204;-84
2023/01/10 09:49:20;;;;;;;6.30;3.97;;;7.40;99.90;;;;;;5058843;28;20215;-83
2023/01/10 09:51:50;;;;;;;5.10;4.32;;;7.50;99.90;;;;;;5045006;28;20249;-82
2023/01/10 09:54:37;;;;;;;11.73;4.65;;;7.50;99.90;;;;;;5058137;28;20237;-84
2023/01/10 09:57:05;;;;;;;5.55;3.53;;;7.40;99.90;;;;;;5051678;28;20709;-83
2023/01/10 09:59:38;;;;;;;5.05;3.65;;;7.50;99.90;;;;;;5058336;28;20208;-82
2023/01/10 10:02:24;;;;;;;7.35;4.45;;;7.50;99.90;;;;;;5060734;28;20211;-82
2023/01/10 10:05:07;;;;;;;5.47;4.50;;;7.50;99.90;;;;;;5073194;28;20215;-81
2023/01/10 10:07:35;;;;;;;4.32;3.67;;;7.60;99.90;;;;;;5066061;28;20274;-83
2023/01/10 10:10:05;;;;;;;8.13;4.45;;;7.60;99.90;;;;;;5052329;28;20275;-84
2023/01/10 10:13:05;;;;;;;10.88;4.25;;;7.70;99.90;;;;;;5057933;28;20208;-81
2023/01/10 10:16:09;;;;;;;9.07;4.28;;;7.80;99.90;;;;;;5049603;28;20204;-80
2023/01/10 10:18:58;;;;;;;13.23;5.05;;;7.90;99.90;;;;;;5047210;28;20255;-81
2023/01/10 10:21:50;;;;;;;8.73;6.20;;;7.90;99.90;;;;;;5061360;28;20247;-84
2023/01/10 10:24:38;;;;;;;9.88;6.80;;;8.00;99.90;;;;;;5046958;28;20206;-81
2023/01/10 10:27:44;;;;;;;4.35;3.95;;;8.10;99.90;;;;;;5053161;28;20265;-82
2023/01/10 10:30:41;;;;;;;6.60;4.75;;;8.20;99.90;;;;;;5065604;28;20213;-81
2023/01/10 10:33:47;;;;;;;6.20;5.18;;;8.20;99.90;;;;;;5058077;28;20209;-81
2023/01/10 10:36:25;;;;;;;5.85;5.10;;;8.40;99.90;;;;;;5040816;28;20251;-82
2023/01/10 10:38:57;;;;;;;11.73;5.22;;;8.30;99.90;;;;;;5057228;28;20215;-82
2023/01/10 10:41:38;;;;;;;5.90;4.18;;;8.40;99.90;;;;;;5058105;28;20259;-83
2023/01/10 10:44:30;;;;;;;7.45;4.50;;;8.30;99.90;;;;;;5047693;28;20208;-81
2023/01/10 10:46:59;;;;;;;10.68;5.93;;;8.40;99.90;;;;;;5055297;28;20264;-81
2023/01/10 10:49:58;;;;;;;7.93;5.68;;;8.30;99.90;;;;;;5053359;28;20214;-81
2023/01/10 10:52:33;;;;;;;9.02;5.85;;;8.40;99.90;;;;;;5056556;28;20755;-80
2023/01/10 10:55:03;;;;;;;18.95;5.85;;;8.40;99.90;;;;;;5056997;28;20216;-86
2023/01/10 10:57:33;;;;;;;9.10;5.53;;;8.30;99.90;;;;;;5057883;28;20414;-85
2023/01/10 11:00:04;;;;;;;7.70;5.20;;;8.30;99.90;;;;;;5055561;28;20540;-83
2023/01/10 11:02:38;;;;;;;6.75;4.57;;;8.30;99.90;;;;;;5056204;28;20224;-81
2023/01/10 11:05:14;;;;;;;7.40;5.68;;;8.30;99.90;;;;;;5050124;28;20294;-83
2023/01/10 11:07:41;;;;;;;4.88;4.22;;;8.30;99.90;;;;;;5063194;28;20209;-83
2023/01/10 11:10:37;;;;;;;8.88;4.80;;;8.40;99.90;;;;;;5064120;28;20201;-82
2023/01/10 11:13:16;;;;;;;6.53;4.68;;;8.40;99.90;;;;;;5058668;28;20537;-83
2023/01/10 11:15:46;;;;;;;8.27;4.25;;;8.20;99.90;;;;;;5060533;28;20211;-81
2023/01/10 11:18:22;;;;;;;9.35;5.43;;;8.30;99.90;;;;;;5062768;28;20221;-80
2023/01/10 11:21:11;;;;;;;5.20;4.43;;;8.30;99.90;;;;;;5058070;28;20562;-85
2023/01/10 11:23:49;;;;;;;8.10;4.68;;;8.30;99.90;;;;;;5062852;28;20296;-81
2023/01/10 11:26:29;;;;;;;10.32;5.28;;;8.20;99.90;;;;;;5056470;28;20433;-80
2023/01/10 11:29:17;;;;;;;7.03;4.05;;;8.10;99.90;;;;;;5062020;28;20199;-80
2023/01/10 11:31:46;;;;;;;7.18;6.22;;;8.20;99.90;;;;;;5052744;28;20211;-84
2023/01/10 11:34:32;;;;;;;6.13;3.90;;;8.20;99.90;;;;;;5045809;28;20216;-82
2023/01/10 11:37:16;;;;;;;6.40;4.63;;;8.30;99.90;;;;;;5057184;28;20207;-81
2023/01/10 11:39:44;;;;;;;11.60;6.07;;;8.20;99.90;;;;;;5063117;28;20222;-82
2023/01/10 11:42:23;;;;;;;8.40;5.50;;;8.10;99.90;;;;;;5058593;28;20229;-81
2023/01/10 11:44:51;;;;;;;11.20;5.18;;;8.20;99.90;;;;;;5053381;28;20250;-82
2023/01/10 11:47:19;;;;;;;7.45;5.03;;;8.20;99.90;;;;;;5062123;28;20200;-83
2023/01/10 11:49:48;;;;;;;9.52;5.85;;;8.30;99.90;;;;;;5060420;28;20280;-81
2023/01/10 11:52:25;;;;;;;5.18;4.60;;;8.20;99.90;;;;;;5064490;28;20247;-83
2023/01/10 11:54:55;;;;;;;4.20;3.80;;;8.20;99.90;;;;;;5053783;28;20208;-82
2023/01/10 11:57:27;;;;;;;4.15;3.75;;;8.20;99.90;;;;;;5048332;28;20204;-84
2023/01/10 11:59:58;;;;;;;8.38;4.95;;;8.20;99.90;;;;;;5046529;28;20213;-85
2023/01/10 12:02:51;;;;;;;9.35;4.40;;;8.10;99.90;;;;;;5059332;28;20270;-83
2023/01/10 12:05:20;;;;;;;9.90;4.32;;;8.20;99.90;;;;;;5060165;28;20222;-82
2023/01/10 12:08:05;;;;;;;5.00;4.50;;;8.30;99.90;;;;;;5056772;28;20412;-82
2023/01/10 12:10:33;;;;;;;9.10;5.95;;;8.20;99.90;;;;;;5061867;28;20216;-85
2023/01/10 12:13:14;;;;;;;10.30;5.65;;;8.20;99.90;;;;;;5049612;28;20223;-83
2023/01/10 12:15:41;;;;;;;8.30;4.45;;;8.10;99.90;;;;;;5060891;28;20265;-82
2023/01/10 12:18:11;;;;;;;5.80;4.88;;;8.20;99.90;;;;;;5054674;28;20208;-84
2023/01/10 12:20:49;;;;;;;7.28;4.25;;;8.10;99.90;;;;;;5069569;28;20738;-83
2023/01/10 12:23:20;;;;;;;7.97;4.47;;;8.10;99.90;;;;;;5051069;28;20228;-83
2023/01/10 12:25:49;;;;;;;11.73;6.45;;;8.00;99.90;;;;;;5061780;28;20196;-82
2023/01/10 12:28:27;;;;;;;7.05;4.90;;;8.10;99.90;;;;;;5063073;28;20302;-81
2023/01/10 12:30:58;;;;;;;7.13;4.93;;;8.10;99.90;;;;;;5051031;28;20197;-81
2023/01/10 12:33:33;;;;;;;9.70;4.43;;;8.10;99.90;;;;;;5061768;28;20235;-84
2023/01/10 12:36:11;;;;;;;8.07;4.35;;;8.10;99.90;;;;;;5047890;28;20203;-82
2023/01/10 12:39:05;;;;;;;19.38;5.93;;;8.00;99.90;;;;;;5057320;28;20203;-81
2023/01/10 12:44:40;;;;;;;11.38;5.85;;;7.80;99.90;;;;;;5060488;28;20216;-83
2023/01/10 12:47:23;;;;;;;8.40;5.38;;;7.90;99.90;;;;;;5058837;28;20210;-81
2023/01/10 12:50:24;;;;;;;8.25;4.85;;;7.90;99.90;;;;;;5045748;28;20259;-82
2023/01/10 12:53:10;;;;;;;10.23;6.10;;;7.90;99.90;;;;;;5051739;28;20208;-82
2023/01/10 12:55:41;;;;;;;9.00;5.75;;;7.90;99.90;;;;;;5048547;28;20214;-82
2023/01/10 12:58:22;;;;;;;12.90;6.00;;;7.90;99.90;;;;;;5059712;28;20192;-82
2023/01/10 13:00:56;;;;;;;7.38;5.38;;;8.00;99.90;;;;;;5052925;28;20229;-82
2023/01/10 13:03:29;;;;;;;6.57;5.05;;;8.00;99.90;;;;;;5060773;28;20499;-85
2023/01/10 13:06:00;;;;;;;6.20;4.90;;;8.10;99.90;;;;;;5064821;28;20246;-87
2023/01/10 13:08:32;;;;;;;14.07;6.75;;;8.10;99.90;;;;;;5066800;28;20235;-83
2023/01/10 13:11:03;;;;;;;10.10;5.40;;;8.30;99.90;;;;;;5065051;28;20192;-81
2023/01/10 13:13:49;;;;;;;5.97;4.57;;;8.30;99.90;;;;;;5074416;28;20208;-82
2023/01/10 13:16:46;;;;;;;12.65;5.50;;;8.30;99.90;;;;;;5068582;28;20202;-84
2023/01/10 13:19:20;;;;;;;16.48;4.82;;;8.20;99.90;;;;;;5055218;28;20538;-85
2023/01/10 13:21:51;;;;;;;11.18;5.60;;;8.30;99.90;;;;;;5054296;28;20219;-84
2023/01/10 13:24:26;;;;;;;7.18;4.60;;;8.10;99.90;;;;;;5063076;28;20543;-84
2023/01/10 13:27:03;;;;;;;5.13;4.03;;;8.20;99.90;;;;;;5054750;28;20211;-84
2023/01/10 13:29:46;;;;;;;11.75;5.88;;;8.20;99.90;;;;;;5064677;28;20556;-83